Time;durP1;ratioP1;P1;durP2;ratioP2;P2;SDS_P1;SDS_P2;PMS_P1;PMS_P2;Temp;Humidity;BMP_temperature;BMP_pressure;BME280_temperature;BME280_humidity;BME280_pressure;Samples;Min_cycle;Max_cycle;Signal;HPM_P1;HPM_P2
2022/05/10 00:01:22;;;;;;;19.37;17.63;;;16.50;95.90;;;;;;5087496;28;20434;-82
2022/05/10 00:03:49;;;;;;;21.30;19.33;;;16.40;96.30;;;;;;5073834;28;20439;-82
2022/05/10 00:06:15;;;;;;;20.40;18.50;;;16.30;96.70;;;;;;5069830;28;20460;-83
2022/05/10 00:08:43;;;;;;;20.73;18.60;;;16.30;97.00;;;;;;5072996;28;20546;-83
2022/05/10 00:11:10;;;;;;;21.10;19.03;;;16.30;97.20;;;;;;5076241;28;20435;-81
2022/05/10 00:13:37;;;;;;;19.40;17.50;;;16.30;97.30;;;;;;5087670;28;20446;-80
2022/05/10 00:16:07;;;;;;;21.70;19.90;;;16.20;97.50;;;;;;5093219;28;20490;-81
2022/05/10 00:18:33;;;;;;;21.23;19.23;;;16.30;97.60;;;;;;5094865;28;20477;-80
2022/05/10 00:21:00;;;;;;;24.23;19.23;;;16.20;97.80;;;;;;5096105;28;20415;-80
2022/05/10 00:23:27;;;;;;;20.47;18.60;;;16.20;98.10;;;;;;5095495;28;20443;-81
2022/05/10 00:25:54;;;;;;;20.80;18.63;;;16.20;98.30;;;;;;5089873;28;20532;-80
2022/05/10 00:28:20;;;;;;;21.77;19.87;;;16.10;99.00;;;;;;5090561;28;20449;-82
2022/05/10 00:30:47;;;;;;;22.40;20.10;;;16.10;98.90;;;;;;5085550;28;20447;-82
2022/05/10 00:33:20;;;;;;;21.27;18.97;;;16.00;98.90;;;;;;5088611;28;20467;-81
2022/05/10 00:35:46;;;;;;;24.30;21.50;;;16.00;99.40;;;;;;5089373;28;20459;-83
2022/05/10 00:38:13;;;;;;;24.20;21.70;;;16.00;99.60;;;;;;5075822;28;20479;-82
2022/05/10 00:40:40;;;;;;;23.40;21.10;;;15.90;99.90;;;;;;5078116;28;20503;-82
2022/05/10 00:43:18;;;;;;;23.73;21.67;;;15.90;99.90;;;;;;5071916;28;20435;-82
2022/05/10 00:45:51;;;;;;;23.73;21.63;;;15.80;99.90;;;;;;5074685;28;20459;-82
2022/05/10 00:48:28;;;;;;;24.07;21.80;;;15.80;99.90;;;;;;5070559;28;20475;-82
2022/05/10 00:51:02;;;;;;;24.07;21.63;;;15.80;99.90;;;;;;5072637;28;20443;-83
2022/05/10 00:53:39;;;;;;;23.40;21.13;;;15.90;99.90;;;;;;5077264;28;20448;-82
2022/05/10 00:56:12;;;;;;;24.90;22.77;;;15.90;99.90;;;;;;5071884;28;20463;-83
2022/05/10 00:58:45;;;;;;;23.87;21.70;;;15.80;99.90;;;;;;5071993;28;20478;-82
2022/05/10 01:01:19;;;;;;;25.07;22.50;;;15.70;99.90;;;;;;5070240;28;20440;-83
2022/05/10 01:03:53;;;;;;;25.23;22.87;;;15.70;99.90;;;;;;5070724;28;20436;-82
2022/05/10 01:06:24;;;;;;;23.60;21.40;;;15.70;99.90;;;;;;5089290;28;20484;-82
2022/05/10 01:08:57;;;;;;;25.00;22.60;;;15.70;99.90;;;;;;5084425;28;20423;-83
2022/05/10 01:11:28;;;;;;;25.23;22.57;;;15.60;99.90;;;;;;5079807;28;20451;-82
2022/05/10 01:13:59;;;;;;;27.10;20.27;;;15.60;99.90;;;;;;5090222;28;20443;-82
2022/05/10 01:16:26;;;;;;;25.73;22.97;;;15.60;99.90;;;;;;5078822;28;20458;-82
2022/05/10 01:18:55;;;;;;;24.63;22.23;;;15.60;99.90;;;;;;5077647;28;21011;-82
2022/05/10 01:21:44;;;;;;;25.60;22.90;;;15.50;99.90;;;;;;5073727;28;20536;-82
2022/05/10 01:24:38;;;;;;;23.27;21.27;;;15.50;99.90;;;;;;5067946;28;20502;-82
2022/05/10 01:27:33;;;;;;;24.70;22.03;;;15.40;99.90;;;;;;5070617;28;20561;-82
2022/05/10 01:30:06;;;;;;;24.90;22.23;;;15.30;99.90;;;;;;5057390;28;20446;-82
2022/05/10 01:35:27;;;;;;;24.43;21.73;;;15.30;99.90;;;;;;5074707;28;20451;-82
2022/05/10 01:37:59;;;;;;;23.63;21.53;;;15.30;99.90;;;;;;5072627;28;21014;-82
2022/05/10 01:40:32;;;;;;;23.47;21.57;;;15.30;99.90;;;;;;5069988;28;20443;-82
2022/05/10 01:43:03;;;;;;;23.70;21.53;;;15.30;99.90;;;;;;5073591;28;20920;-83
2022/05/10 01:45:37;;;;;;;23.20;21.20;;;15.20;99.90;;;;;;5075800;28;20952;-81
2022/05/10 01:48:05;;;;;;;24.27;21.93;;;15.30;99.90;;;;;;5075752;28;20427;-82
2022/05/10 01:50:38;;;;;;;25.67;23.03;;;15.30;99.90;;;;;;5066387;28;20447;-82
2022/05/10 01:53:08;;;;;;;24.13;21.73;;;15.20;99.90;;;;;;5068188;28;20471;-84
2022/05/10 01:55:36;;;;;;;24.90;22.70;;;15.20;99.90;;;;;;5070005;28;20463;-82
2022/05/10 01:58:08;;;;;;;22.07;20.07;;;15.20;99.90;;;;;;5077185;28;20471;-82
2022/05/10 02:00:38;;;;;;;22.63;20.13;;;15.20;99.90;;;;;;5081103;28;20435;-81
2022/05/10 02:03:13;;;;;;;24.30;21.97;;;15.10;99.90;;;;;;5079407;28;20442;-82
2022/05/10 02:05:50;;;;;;;23.30;21.00;;;15.10;99.90;;;;;;5072595;28;20979;-82
2022/05/10 02:08:26;;;;;;;23.20;21.23;;;15.10;99.90;;;;;;5072008;28;20446;-82
2022/05/10 02:10:57;;;;;;;24.20;21.90;;;15.00;99.90;;;;;;5072805;28;20457;-82
2022/05/10 02:13:29;;;;;;;23.00;20.90;;;15.00;99.90;;;;;;5072170;28;20450;-82
2022/05/10 02:16:00;;;;;;;24.40;22.00;;;15.00;99.90;;;;;;5080436;28;20451;-82
2022/05/10 02:18:33;;;;;;;24.67;22.37;;;15.00;99.90;;;;;;5092035;28;20478;-82
2022/05/10 02:21:07;;;;;;;23.00;21.00;;;15.00;99.90;;;;;;5073003;28;20439;-83
2022/05/10 02:23:39;;;;;;;25.40;23.00;;;15.00;99.90;;;;;;5062432;28;20443;-81
2022/05/10 02:26:10;;;;;;;24.77;22.37;;;14.90;99.90;;;;;;5070932;28;20466;-82
2022/05/10 02:28:43;;;;;;;24.23;21.97;;;14.90;99.90;;;;;;5076535;28;20438;-82
2022/05/10 02:31:17;;;;;;;24.27;22.07;;;14.80;99.90;;;;;;5079364;28;20443;-82
2022/05/10 02:33:45;;;;;;;22.70;20.60;;;14.80;99.90;;;;;;5096898;28;20422;-81
2022/05/10 02:36:12;;;;;;;23.17;20.67;;;14.80;99.90;;;;;;5092065;28;20455;-81
2022/05/10 02:38:40;;;;;;;23.83;21.80;;;14.70;99.90;;;;;;5093502;28;20471;-81
2022/05/10 02:41:12;;;;;;;24.23;22.10;;;14.70;99.90;;;;;;5095135;28;20438;-81
2022/05/10 02:43:44;;;;;;;23.47;21.27;;;14.70;99.90;;;;;;5098595;28;20430;-81
2022/05/10 02:46:12;;;;;;;22.93;20.63;;;14.80;99.90;;;;;;5096904;28;20443;-81
2022/05/10 02:48:39;;;;;;;24.20;22.00;;;14.70;99.90;;;;;;5098448;28;20436;-81
2022/05/10 02:51:07;;;;;;;24.77;22.40;;;14.70;99.90;;;;;;5086037;28;20451;-82
2022/05/10 02:53:34;;;;;;;24.77;22.27;;;14.70;99.90;;;;;;5096740;28;20494;-80
2022/05/10 02:56:02;;;;;;;24.87;22.67;;;14.60;99.90;;;;;;5095287;28;20803;-82
2022/05/10 02:58:32;;;;;;;25.50;22.83;;;14.50;99.90;;;;;;5094878;28;20497;-82
2022/05/10 03:01:06;;;;;;;23.80;21.50;;;14.50;99.90;;;;;;5083425;28;21258;-83
2022/05/10 03:03:35;;;;;;;23.30;20.93;;;14.50;99.90;;;;;;5082822;28;20430;-82
2022/05/10 03:06:02;;;;;;;25.23;22.30;;;14.50;99.90;;;;;;5081694;28;20462;-82
2022/05/10 03:08:28;;;;;;;26.27;23.20;;;14.50;99.90;;;;;;5077277;28;20443;-82
2022/05/10 03:10:55;;;;;;;26.10;23.73;;;14.50;99.90;;;;;;5082303;28;20440;-82
2022/05/10 03:13:22;;;;;;;28.73;25.73;;;14.50;99.90;;;;;;5079320;28;20438;-82
2022/05/10 03:15:49;;;;;;;28.03;25.37;;;14.50;99.90;;;;;;5076689;28;20813;-83
2022/05/10 03:18:15;;;;;;;26.77;24.27;;;14.40;99.90;;;;;;5070023;28;20478;-82
2022/05/10 03:20:43;;;;;;;25.87;23.40;;;14.50;99.90;;;;;;5073409;28;20473;-83
2022/05/10 03:23:10;;;;;;;25.80;23.27;;;14.40;99.90;;;;;;5071512;28;20446;-83
2022/05/10 03:25:37;;;;;;;23.43;21.23;;;14.40;99.90;;;;;;5076706;28;20465;-83
2022/05/10 03:28:05;;;;;;;24.53;22.13;;;14.40;99.90;;;;;;5070606;28;20788;-83
2022/05/10 03:30:32;;;;;;;24.60;22.30;;;14.30;99.90;;;;;;5073540;28;20428;-82
2022/05/10 03:32:59;;;;;;;25.30;23.20;;;14.30;99.90;;;;;;5073742;28;20438;-82
2022/05/10 03:35:27;;;;;;;23.83;21.73;;;14.20;99.90;;;;;;5085145;28;20467;-83
2022/05/10 03:37:55;;;;;;;21.60;19.80;;;14.30;99.90;;;;;;5076436;28;20467;-83
2022/05/10 03:40:21;;;;;;;23.43;21.53;;;14.20;99.90;;;;;;5074114;28;20446;-83
2022/05/10 03:42:53;;;;;;;23.50;21.13;;;14.20;99.90;;;;;;5074466;28;20437;-83
2022/05/10 03:45:23;;;;;;;24.40;22.20;;;14.20;99.90;;;;;;5081821;28;20467;-82
2022/05/10 03:47:51;;;;;;;26.00;23.40;;;14.10;99.90;;;;;;5087284;28;20436;-81
2022/05/10 03:50:20;;;;;;;25.67;21.57;;;14.10;99.90;;;;;;5087642;28;20446;-83
2022/05/10 03:52:47;;;;;;;25.13;22.83;;;14.10;99.90;;;;;;5079323;28;20436;-83
2022/05/10 03:55:17;;;;;;;26.43;23.80;;;14.20;99.90;;;;;;5074797;28;20464;-85
2022/05/10 03:57:45;;;;;;;26.17;23.90;;;14.20;99.90;;;;;;5068680;28;20986;-84
2022/05/10 04:00:17;;;;;;;26.17;23.77;;;14.20;99.90;;;;;;5074552;28;20927;-85
2022/05/10 04:02:45;;;;;;;25.60;23.10;;;14.10;99.90;;;;;;5078584;28;20473;-84
2022/05/10 04:05:12;;;;;;;26.33;23.57;;;14.10;99.90;;;;;;5071780;28;20455;-85
2022/05/10 04:07:39;;;;;;;25.57;23.07;;;14.10;99.90;;;;;;5077816;28;20443;-85
2022/05/10 04:10:08;;;;;;;25.67;22.97;;;14.10;99.90;;;;;;5063174;28;20437;-86
2022/05/10 04:12:36;;;;;;;25.37;22.97;;;14.10;99.90;;;;;;5068230;28;20542;-85
2022/05/10 04:15:04;;;;;;;24.27;21.87;;;14.10;99.90;;;;;;5078074;28;20454;-86
2022/05/10 04:17:31;;;;;;;24.40;22.10;;;14.10;99.90;;;;;;5084953;28;20428;-84
2022/05/10 04:19:58;;;;;;;24.73;22.53;;;14.10;99.90;;;;;;5086049;28;20459;-85
2022/05/10 04:22:25;;;;;;;24.57;22.10;;;14.10;99.90;;;;;;5083889;28;20436;-85
2022/05/10 04:24:52;;;;;;;24.60;22.00;;;14.10;99.90;;;;;;5084870;28;20451;-85
2022/05/10 04:27:19;;;;;;;25.80;23.30;;;14.20;99.90;;;;;;5087881;28;20859;-89
2022/05/10 04:29:48;;;;;;;25.07;22.47;;;14.20;99.90;;;;;;5079011;28;20450;-81
2022/05/10 04:32:14;;;;;;;24.27;22.27;;;14.20;99.90;;;;;;5080175;28;20445;-80
2022/05/10 04:34:41;;;;;;;24.93;22.33;;;14.20;99.90;;;;;;5078380;28;20450;-80
2022/05/10 04:37:08;;;;;;;22.50;20.47;;;14.30;99.90;;;;;;5084207;28;20446;-84
2022/05/10 04:42:24;;;;;;;23.50;21.00;;;14.30;99.90;;;;;;5020508;28;20526;-85
2022/05/10 04:44:52;;;;;;;22.50;20.40;;;14.40;99.90;;;;;;5077505;28;20724;-85
2022/05/10 04:47:19;;;;;;;24.70;22.40;;;14.40;99.90;;;;;;5085018;28;20446;-83
2022/05/10 04:49:46;;;;;;;23.80;21.33;;;14.50;99.90;;;;;;5092417;28;20441;-83
2022/05/10 04:52:13;;;;;;;24.13;21.77;;;14.50;99.90;;;;;;5092156;28;20497;-83
2022/05/10 04:54:39;;;;;;;25.57;22.87;;;14.50;99.90;;;;;;5090949;28;20445;-83
2022/05/10 04:57:06;;;;;;;25.87;21.93;;;14.50;99.90;;;;;;5088728;28;20600;-83
2022/05/10 04:59:33;;;;;;;23.43;20.83;;;14.70;99.90;;;;;;5091619;28;20479;-83
2022/05/10 05:02:01;;;;;;;24.43;22.13;;;15.10;99.90;;;;;;5086848;28;20439;-84
2022/05/10 05:04:28;;;;;;;22.83;20.53;;;15.50;99.90;;;;;;5078220;28;20990;-84
2022/05/10 05:06:55;;;;;;;23.43;20.97;;;15.90;99.90;;;;;;5078058;28;20454;-85
2022/05/10 05:09:22;;;;;;;22.10;19.90;;;16.30;99.90;;;;;;5079127;28;20440;-85
2022/05/10 05:11:48;;;;;;;24.53;22.10;;;16.50;99.90;;;;;;5078841;28;20457;-85
2022/05/10 05:14:15;;;;;;;23.23;21.00;;;16.70;99.90;;;;;;5090887;28;20431;-84
2022/05/10 05:16:42;;;;;;;20.77;19.00;;;16.80;99.90;;;;;;5097098;28;20448;-86
2022/05/10 05:19:10;;;;;;;23.50;21.13;;;17.10;99.90;;;;;;5094957;28;20466;-86
2022/05/10 05:21:38;;;;;;;22.07;20.17;;;17.20;99.90;;;;;;5095354;28;20570;-85
2022/05/10 05:24:05;;;;;;;20.40;18.73;;;17.50;99.90;;;;;;5090563;28;20435;-84
2022/05/10 05:26:32;;;;;;;23.70;21.17;;;17.70;99.70;;;;;;5083643;28;20455;-84
2022/05/10 05:28:59;;;;;;;21.90;19.60;;;18.00;99.30;;;;;;5081869;28;20467;-85
2022/05/10 05:31:26;;;;;;;21.30;19.27;;;18.40;98.60;;;;;;5079136;28;20966;-85
2022/05/10 05:33:54;;;;;;;21.63;19.43;;;18.60;97.40;;;;;;5079430;28;20820;-84
2022/05/10 05:36:22;;;;;;;21.63;19.57;;;18.90;96.90;;;;;;5079468;28;20763;-85
2022/05/10 05:38:50;;;;;;;19.53;17.50;;;19.10;96.00;;;;;;5081151;28;20865;-87
2022/05/10 05:41:17;;;;;;;20.83;17.00;;;19.40;95.20;;;;;;5078574;28;20528;-85
2022/05/10 05:43:44;;;;;;;19.03;17.27;;;19.60;94.60;;;;;;5079306;28;20947;-84
2022/05/10 05:46:11;;;;;;;18.23;16.70;;;19.60;93.80;;;;;;5086379;28;20462;-87
2022/05/10 05:48:38;;;;;;;18.80;17.20;;;19.70;93.50;;;;;;5096003;28;20436;-88
2022/05/10 05:51:05;;;;;;;19.80;18.20;;;19.90;93.10;;;;;;5096908;28;20441;-88
2022/05/10 05:53:33;;;;;;;18.93;17.20;;;19.90;92.60;;;;;;5097145;28;20438;-88
2022/05/10 05:56:04;;;;;;;19.90;17.83;;;20.10;92.40;;;;;;5096345;28;20461;-87
2022/05/10 05:58:32;;;;;;;18.50;17.00;;;20.30;91.60;;;;;;5092261;28;20471;-87
2022/05/10 06:00:58;;;;;;;19.03;16.20;;;20.30;91.40;;;;;;5086854;28;20454;-85
2022/05/10 06:03:25;;;;;;;20.97;19.20;;;20.20;91.50;;;;;;5091531;28;20494;-88
2022/05/10 06:05:52;;;;;;;20.63;18.47;;;20.30;91.20;;;;;;5096615;28;20463;-88
2022/05/10 06:08:19;;;;;;;19.30;17.70;;;20.40;91.10;;;;;;5079592;28;20520;-87
2022/05/10 06:10:50;;;;;;;18.57;16.87;;;20.30;90.80;;;;;;5091740;28;20858;-84
2022/05/10 06:13:18;;;;;;;17.90;16.30;;;20.30;90.80;;;;;;5079470;28;20484;-84
2022/05/10 06:15:45;;;;;;;17.87;16.47;;;20.40;90.70;;;;;;5090129;28;20478;-83
2022/05/10 06:18:12;;;;;;;18.67;16.97;;;20.30;90.60;;;;;;5077694;28;20444;-85
2022/05/10 06:20:38;;;;;;;19.77;18.10;;;20.60;90.80;;;;;;5081143;28;20466;-85
2022/05/10 06:23:06;;;;;;;18.60;17.10;;;20.70;90.50;;;;;;5086425;28;20436;-85
2022/05/10 06:25:35;;;;;;;19.70;17.70;;;21.00;90.20;;;;;;5079929;28;20471;-84
2022/05/10 06:28:04;;;;;;;17.40;16.00;;;21.10;88.90;;;;;;5080459;28;20506;-84
2022/05/10 06:30:31;;;;;;;17.87;16.47;;;21.40;88.20;;;;;;5078289;28;20445;-85
2022/05/10 06:32:59;;;;;;;17.63;16.13;;;21.90;86.50;;;;;;5080223;28;20433;-85
2022/05/10 06:35:26;;;;;;;18.30;16.87;;;22.10;85.40;;;;;;5077963;28;20471;-84
2022/05/10 06:40:38;;;;;;;18.90;17.20;;;22.10;84.20;;;;;;5076964;28;20429;-84
2022/05/10 06:43:06;;;;;;;19.20;17.60;;;22.10;84.00;;;;;;5078557;28;20451;-85
2022/05/10 06:45:33;;;;;;;17.43;15.73;;;22.40;83.40;;;;;;5081062;28;20470;-84
2022/05/10 06:48:00;;;;;;;18.00;16.30;;;22.80;83.10;;;;;;5084052;28;20462;-85
2022/05/10 06:50:28;;;;;;;17.27;15.87;;;23.00;82.10;;;;;;5086843;28;20447;-85
2022/05/10 06:52:57;;;;;;;18.70;16.73;;;23.20;81.20;;;;;;5084697;28;20530;-86
2022/05/10 06:55:24;;;;;;;17.90;16.33;;;23.50;80.00;;;;;;5085086;28;20478;-85
2022/05/10 06:57:51;;;;;;;16.80;15.60;;;23.90;78.80;;;;;;5089596;28;20443;-86
2022/05/10 07:00:21;;;;;;;16.63;15.13;;;24.40;78.10;;;;;;5092944;28;20581;-86
2022/05/10 07:02:48;;;;;;;16.63;14.23;;;24.80;76.20;;;;;;5091579;28;20459;-84
2022/05/10 07:05:16;;;;;;;15.80;14.57;;;25.30;73.70;;;;;;5091748;28;20476;-86
2022/05/10 07:07:43;;;;;;;16.23;14.93;;;25.30;72.00;;;;;;5091415;28;20444;-85
2022/05/10 07:10:11;;;;;;;16.17;14.77;;;25.70;71.00;;;;;;5092600;28;20436;-84
2022/05/10 07:12:38;;;;;;;14.50;13.30;;;26.00;70.10;;;;;;5093028;28;20465;-87
2022/05/10 07:15:08;;;;;;;16.70;15.47;;;26.20;68.60;;;;;;5093265;28;20737;-86
2022/05/10 07:17:37;;;;;;;16.00;14.70;;;26.90;67.50;;;;;;5089598;28;20439;-85
2022/05/10 07:20:06;;;;;;;15.20;13.90;;;27.40;65.50;;;;;;5091792;28;20479;-85
2022/05/10 07:22:33;;;;;;;14.93;13.83;;;27.70;63.00;;;;;;5092519;28;20454;-85
2022/05/10 07:24:59;;;;;;;15.97;14.50;;;27.30;63.50;;;;;;5090550;28;20477;-87
2022/05/10 07:27:26;;;;;;;15.90;14.37;;;27.00;63.50;;;;;;5087256;28;20554;-86
2022/05/10 07:29:53;;;;;;;15.07;13.70;;;27.00;63.50;;;;;;5087605;28;20965;-86
2022/05/10 07:32:21;;;;;;;15.60;14.10;;;26.20;65.70;;;;;;5087722;28;20447;-86
2022/05/10 07:34:49;;;;;;;16.03;14.47;;;26.30;66.20;;;;;;5087152;28;20490;-87
2022/05/10 07:37:16;;;;;;;15.03;13.53;;;27.10;64.50;;;;;;5087968;28;20462;-85
2022/05/10 07:39:43;;;;;;;14.77;13.23;;;27.60;63.10;;;;;;5087585;28;21146;-85
2022/05/10 07:42:10;;;;;;;14.23;13.00;;;27.80;62.10;;;;;;5090034;28;20501;-88
2022/05/10 07:44:37;;;;;;;14.63;13.43;;;27.70;61.30;;;;;;5098327;28;20494;-87
2022/05/10 07:47:04;;;;;;;13.90;12.90;;;28.10;61.10;;;;;;5096614;28;20442;-88
2022/05/10 07:49:33;;;;;;;14.57;13.23;;;28.30;60.30;;;;;;5095160;28;20458;-85
2022/05/10 07:52:03;;;;;;;15.67;14.17;;;28.80;59.80;;;;;;5096254;28;20436;-86
2022/05/10 07:54:30;;;;;;;13.03;12.00;;;29.00;59.10;;;;;;5096213;28;20436;-85
2022/05/10 07:56:59;;;;;;;12.77;11.77;;;29.30;58.40;;;;;;5089283;28;20447;-86
2022/05/10 07:59:28;;;;;;;14.37;13.17;;;28.60;59.00;;;;;;5070548;28;20487;-85
2022/05/10 08:01:54;;;;;;;13.77;12.57;;;29.10;59.00;;;;;;5088517;28;20455;-85
2022/05/10 08:04:21;;;;;;;14.20;13.07;;;28.80;58.50;;;;;;5086389;28;20451;-85
2022/05/10 08:06:48;;;;;;;12.10;11.00;;;29.30;59.20;;;;;;5086168;28;20472;-86
2022/05/10 08:09:16;;;;;;;13.40;12.13;;;29.80;58.00;;;;;;5086575;28;20451;-86
2022/05/10 08:11:46;;;;;;;13.63;12.53;;;29.70;57.30;;;;;;5085598;28;20447;-85
2022/05/10 08:14:13;;;;;;;13.47;12.17;;;29.90;56.60;;;;;;5085337;28;20456;-85
2022/05/10 08:16:40;;;;;;;18.33;12.37;;;30.10;55.80;;;;;;5084952;28;20511;-85
2022/05/10 08:19:06;;;;;;;23.70;12.67;;;30.70;55.30;;;;;;5084721;28;20483;-86
2022/05/10 08:21:33;;;;;;;13.70;11.93;;;31.50;54.70;;;;;;5082855;28;20447;-85
2022/05/10 08:24:00;;;;;;;12.27;11.47;;;32.00;53.60;;;;;;5083792;28;20458;-85
2022/05/10 08:26:28;;;;;;;12.70;11.60;;;31.70;52.50;;;;;;5083048;28;20817;-88
2022/05/10 08:28:55;;;;;;;11.83;10.83;;;32.00;52.40;;;;;;5083711;28;20454;-86
2022/05/10 08:31:21;;;;;;;11.03;10.13;;;31.40;53.70;;;;;;5064197;28;20428;-86
2022/05/10 08:33:48;;;;;;;12.60;10.03;;;31.30;53.20;;;;;;5080679;28;20435;-85
2022/05/10 08:36:15;;;;;;;11.53;10.53;;;30.90;53.50;;;;;;5082484;28;20475;-85
2022/05/10 08:38:42;;;;;;;12.50;11.60;;;31.10;53.10;;;;;;5083525;28;20448;-86
2022/05/10 08:41:13;;;;;;;11.63;10.63;;;30.40;54.20;;;;;;5083595;28;20490;-85
2022/05/10 08:43:46;;;;;;;12.40;11.17;;;31.20;53.60;;;;;;5086612;28;20447;-86
2022/05/10 08:46:15;;;;;;;11.13;10.13;;;31.60;52.60;;;;;;5089866;28;20498;-86
2022/05/10 08:48:44;;;;;;;10.50;9.70;;;32.90;52.20;;;;;;5082356;28;20489;-86
2022/05/10 08:51:10;;;;;;;12.37;11.27;;;33.50;50.70;;;;;;5079673;28;20822;-84
2022/05/10 08:53:37;;;;;;;11.37;10.50;;;34.20;49.00;;;;;;5080408;28;20457;-86
2022/05/10 08:56:09;;;;;;;11.50;10.70;;;33.70;48.10;;;;;;5079750;28;20486;-86
2022/05/10 08:58:53;;;;;;;11.37;10.27;;;33.50;48.50;;;;;;5078658;28;20459;-81
2022/05/10 09:01:23;;;;;;;10.33;9.67;;;34.00;48.60;;;;;;5078628;28;20849;-80
2022/05/10 09:03:57;;;;;;;10.83;9.73;;;34.10;48.60;;;;;;5077737;28;20826;-80
2022/05/10 09:06:45;;;;;;;10.60;9.70;;;33.50;47.60;;;;;;5077071;28;21018;-81
2022/05/10 09:09:22;;;;;;;10.13;9.33;;;34.30;47.90;;;;;;5078606;28;20454;-81
2022/05/10 09:11:53;;;;;;;10.80;9.90;;;35.00;47.50;;;;;;5077633;28;20451;-80
2022/05/10 09:14:27;;;;;;;10.70;9.70;;;35.00;45.70;;;;;;5078358;28;20952;-80
2022/05/10 09:16:55;;;;;;;10.23;9.33;;;35.50;45.20;;;;;;5080238;28;20447;-80
2022/05/10 09:19:32;;;;;;;9.73;9.03;;;34.50;45.60;;;;;;5077959;28;20489;-81
2022/05/10 09:22:03;;;;;;;9.13;8.30;;;35.00;45.30;;;;;;5078584;28;20451;-80
2022/05/10 09:24:41;;;;;;;9.73;9.03;;;35.40;45.60;;;;;;5075520;28;20534;-80
2022/05/10 09:27:10;;;;;;;9.50;8.70;;;35.20;44.30;;;;;;5079648;28;20873;-85
2022/05/10 09:29:42;;;;;;;10.47;9.50;;;34.90;44.00;;;;;;5084620;28;20447;-84
2022/05/10 09:35:14;;;;;;;8.73;7.90;;;34.90;44.70;;;;;;5075917;28;20453;-85
2022/05/10 09:37:45;;;;;;;8.63;8.03;;;35.60;43.20;;;;;;5084198;28;20970;-86
2022/05/10 09:40:37;;;;;;;8.30;7.60;;;36.10;42.70;;;;;;5083084;28;20479;-85
2022/05/10 09:43:19;;;;;;;6.23;5.80;;;36.40;40.30;;;;;;5054292;28;20455;-84
2022/05/10 09:46:05;;;;;;;7.97;7.40;;;36.60;38.30;;;;;;5083079;28;20642;-85
2022/05/10 09:48:32;;;;;;;7.10;6.43;;;37.50;39.20;;;;;;5079627;28;20446;-86
2022/05/10 09:50:59;;;;;;;7.27;6.80;;;36.50;39.50;;;;;;5077562;28;20444;-85
2022/05/10 09:53:28;;;;;;;7.00;6.50;;;36.60;37.40;;;;;;5078363;28;20465;-85
2022/05/10 09:56:03;;;;;;;6.67;6.17;;;36.20;37.60;;;;;;5080229;28;20462;-85
2022/05/10 09:58:34;;;;;;;6.10;5.60;;;36.50;37.60;;;;;;5084669;28;20438;-86
2022/05/10 10:01:05;;;;;;;7.00;6.50;;;37.30;36.80;;;;;;5079415;28;20467;-85
2022/05/10 10:03:34;;;;;;;6.77;6.27;;;38.10;36.30;;;;;;5077404;28;20475;-85
2022/05/10 10:06:16;;;;;;;7.63;7.00;;;38.60;36.20;;;;;;5081905;28;20471;-86
2022/05/10 10:08:45;;;;;;;7.30;6.70;;;38.60;35.10;;;;;;5082420;28;20443;-86
2022/05/10 10:11:14;;;;;;;7.53;6.77;;;38.40;35.60;;;;;;5083494;28;20466;-84
2022/05/10 10:13:59;;;;;;;7.10;6.60;;;37.60;36.10;;;;;;5094793;28;20495;-87
2022/05/10 10:16:30;;;;;;;7.00;6.60;;;37.80;37.00;;;;;;5084737;28;20451;-86
2022/05/10 10:19:00;;;;;;;7.33;6.83;;;37.80;36.00;;;;;;5092751;28;20462;-85
2022/05/10 10:21:34;;;;;;;6.90;6.40;;;36.60;37.00;;;;;;5098360;28;20467;-85
2022/05/10 10:24:02;;;;;;;6.73;6.20;;;36.30;36.80;;;;;;5093508;28;20546;-85
2022/05/10 10:26:38;;;;;;;7.33;6.50;;;36.20;37.20;;;;;;5093070;22;20496;-86
2022/05/10 10:29:13;;;;;;;6.93;6.40;;;36.60;36.60;;;;;;5063804;28;20517;-86
2022/05/10 10:31:44;;;;;;;6.80;6.40;;;35.70;37.10;;;;;;5056932;28;20444;-86
2022/05/10 10:34:17;;;;;;;6.87;6.27;;;35.70;37.40;;;;;;5071721;28;20804;-86
2022/05/10 10:36:50;;;;;;;6.00;5.50;;;34.40;37.90;;;;;;5075066;28;20467;-86
2022/05/10 10:39:25;;;;;;;6.83;6.23;;;33.40;39.10;;;;;;5075694;28;20473;-87
2022/05/10 10:41:57;;;;;;;6.50;6.10;;;33.10;40.00;;;;;;5075926;28;20439;-87
2022/05/10 10:44:26;;;;;;;6.40;5.80;;;34.80;38.90;;;;;;5067375;28;20446;-86
2022/05/10 10:47:16;;;;;;;7.30;6.70;;;36.10;37.40;;;;;;5067025;28;20479;-86
2022/05/10 10:49:48;;;;;;;6.30;5.90;;;35.90;35.40;;;;;;5056809;28;20440;-86
2022/05/10 10:52:17;;;;;;;7.43;6.77;;;35.60;36.70;;;;;;5056748;28;20490;-86
2022/05/10 10:54:44;;;;;;;5.87;5.37;;;34.70;36.30;;;;;;5057129;28;20444;-86
2022/05/10 10:57:34;;;;;;;5.90;5.50;;;34.00;37.50;;;;;;5063852;28;20461;-87
2022/05/10 11:00:11;;;;;;;6.23;5.83;;;33.40;38.00;;;;;;5075283;28;20464;-87
2022/05/10 11:03:04;;;;;;;7.23;6.70;;;33.60;38.40;;;;;;5065479;28;20859;-87
2022/05/10 11:06:02;;;;;;;5.87;5.47;;;33.80;38.10;;;;;;5075633;28;20439;-86
2022/05/10 11:08:40;;;;;;;6.10;5.50;;;32.90;38.60;;;;;;5036929;28;20448;-87
2022/05/10 11:11:14;;;;;;;6.50;6.00;;;31.20;40.40;;;;;;5074927;28;20450;-86
2022/05/10 11:13:51;;;;;;;6.43;5.87;;;29.70;42.20;;;;;;5091823;28;20462;-86
2022/05/10 11:16:34;;;;;;;7.00;6.43;;;29.60;43.10;;;;;;5077268;28;20517;-86
2022/05/10 11:19:25;;;;;;;6.30;5.80;;;29.40;43.40;;;;;;5065097;28;20475;-85
2022/05/10 11:22:03;;;;;;;7.00;6.50;;;29.70;44.20;;;;;;5056859;28;20483;-88
2022/05/10 11:24:43;;;;;;;6.30;5.70;;;31.00;42.90;;;;;;5057406;28;20451;-88
2022/05/10 11:27:32;;;;;;;7.07;5.87;;;31.60;41.50;;;;;;5060771;28;20485;-89
2022/05/10 11:30:08;;;;;;;6.60;6.17;;;30.60;41.90;;;;;;5074718;28;20461;-88
2022/05/10 11:32:55;;;;;;;7.60;6.07;;;30.00;43.70;;;;;;5054132;28;20963;-88
2022/05/10 11:35:42;;;;;;;5.70;5.30;;;30.50;42.60;;;;;;5055887;28;20531;-87
2022/05/10 11:38:22;;;;;;;5.33;4.93;;;32.40;39.90;;;;;;5055675;28;20440;-87
2022/05/10 11:41:15;;;;;;;7.07;6.50;;;34.20;39.10;;;;;;5072866;28;20475;-87
2022/05/10 11:44:08;;;;;;;5.73;5.30;;;34.90;37.30;;;;;;5081337;28;20449;-88
2022/05/10 11:47:12;;;;;;;6.90;6.20;;;34.40;37.00;;;;;;5067818;28;20472;-88
2022/05/10 11:50:09;;;;;;;6.40;5.90;;;33.00;38.40;;;;;;5029466;28;20444;-88
2022/05/10 11:53:00;;;;;;;5.70;5.40;;;31.80;40.20;;;;;;5055886;28;20460;-87
2022/05/10 11:55:34;;;;;;;6.20;5.70;;;31.70;40.40;;;;;;5048584;28;20425;-90
2022/05/10 11:58:08;;;;;;;6.70;6.20;;;30.80;40.90;;;;;;5077399;28;20428;-88
2022/05/10 12:00:43;;;;;;;6.03;5.63;;;30.50;41.30;;;;;;5080137;28;20449;-88
2022/05/10 12:03:13;;;;;;;6.67;6.17;;;29.80;42.30;;;;;;5056576;28;20728;-87
2022/05/10 12:05:41;;;;;;;7.17;6.47;;;30.10;43.30;;;;;;5055807;28;20461;-89
2022/05/10 12:08:35;;;;;;;6.40;5.90;;;31.70;42.00;;;;;;5048133;28;20459;-88
2022/05/10 12:11:37;;;;;;;5.50;5.10;;;32.40;40.30;;;;;;5069931;28;20507;-88
2022/05/10 12:22:58;;;;;;;14.33;5.53;;;33.80;36.80;;;;;;5074156;28;20446;-86
2022/05/10 12:25:55;;;;;;;7.20;5.40;;;34.30;36.30;;;;;;5075696;28;20508;-86
2022/05/10 12:28:42;;;;;;;4.70;4.40;;;31.80;36.50;;;;;;5022558;28;20530;-86
2022/05/10 12:31:39;;;;;;;5.20;4.90;;;31.90;37.40;;;;;;5045463;28;20436;-86
2022/05/10 12:34:08;;;;;;;5.87;5.20;;;32.40;37.00;;;;;;5070907;28;20451;-86
2022/05/10 12:36:37;;;;;;;6.53;5.10;;;32.50;36.80;;;;;;5054593;28;20452;-86
2022/05/10 12:39:21;;;;;;;5.47;5.00;;;32.90;37.20;;;;;;5058018;28;20482;-86
2022/05/10 12:41:53;;;;;;;5.20;4.80;;;31.60;38.30;;;;;;5074124;28;20523;-86
2022/05/10 12:45:02;;;;;;;4.50;4.20;;;31.20;39.20;;;;;;5086542;28;20445;-86
2022/05/10 12:47:55;;;;;;;5.93;5.43;;;31.10;38.80;;;;;;5070535;28;20464;-86
2022/05/10 12:50:42;;;;;;;6.50;5.00;;;31.80;39.40;;;;;;5073379;28;20435;-86
2022/05/10 12:53:22;;;;;;;5.33;4.93;;;31.90;38.10;;;;;;5080462;28;20825;-86
2022/05/10 12:55:49;;;;;;;5.83;5.43;;;31.20;38.90;;;;;;5075399;28;20470;-86
2022/05/10 12:58:23;;;;;;;5.37;4.87;;;31.20;39.40;;;;;;5093185;28;20452;-86
2022/05/10 13:00:55;;;;;;;5.53;4.93;;;31.30;38.90;;;;;;5068919;28;20894;-86
2022/05/10 13:03:25;;;;;;;5.03;4.63;;;32.20;37.60;;;;;;5057390;28;20447;-87
2022/05/10 13:06:05;;;;;;;5.57;5.07;;;32.20;36.70;;;;;;5054198;28;20464;-87
2022/05/10 13:09:19;;;;;;;5.00;4.63;;;32.50;36.10;;;;;;5033615;28;20451;-86
2022/05/10 13:11:50;;;;;;;4.90;4.50;;;33.40;36.00;;;;;;4970821;28;20451;-86
2022/05/10 13:14:19;;;;;;;5.47;5.07;;;34.40;34.70;;;;;;5024081;28;20833;-86
2022/05/10 13:16:48;;;;;;;5.53;5.03;;;34.60;34.30;;;;;;5073622;28;20600;-87